Orlando, FL

1:24 AM EDT on September 19, 2014 (GMT -0400)
Orlando Sanford | Change Station
CLOSE
Current Station
Airport
Location: Sanford,
Elevation: 56 ft
Nearby Weather Stations

Elev 56 ft 28.78 °N, 81.24 °W | Updated 31 minutes ago

Partly Cloudy
Partly Cloudy
78 °F
Feels Like 78 °F
N
0
Wind Variable Wind from North

Today
High -- | Low -- °F
--% Chance of Precip.
Yesterday
High -- | Low -- °F
Precip. -- in
7:12 AM 7:25 PM
Waning Crescent, 22% visible
Pressure 29.94 in
Visibility 10.0 miles
Clouds Few 2600 ft
Dew Point 73 °F
Humidity 84%
Rainfall 0.00 in
Snow Depth Not available.
UV 0 out of 12
Pollen 7.30 out of 12
Ozone Good
PM2.5 Good
Flu Activity Not available.
METAR KSFB 190453Z AUTO 00000KT 10SM FEW026 26/23 A2994 RMK AO2 SLP138 T02560228 403330222

More Conditions Fewer Conditions

Pressure 29.94 in
Visibility 10.0 miles
Clouds Few 2600 ft
Dew Point 73 °F
Humidity 84%
Rainfall 0.00 in
Snow Depth Not available.
UV 0 out of 12
Pollen 7.30 out of 12
Ozone Good
PM2.5 Good
Flu Activity Not available.
METAR KSFB 190453Z AUTO 00000KT 10SM FEW026 26/23 A2994 RMK AO2 SLP138 T02560228 403330222

More Conditions Fewer Conditions

10-Day Weather Forecast

Almanac

Astronomy

Sep. 19, 2014 Rise Set
Actual Time 7:12 AM EDT 7:25 PM EDT
Civil Twilight 6:48 AM EDT 7:49 PM EDT
Nautical Twilight 6:21 AM EDT 8:16 PM EDT
Astronomical Twilight 5:53 AM EDT 8:44 PM EDT
Moon 3:12 AM EDT 4:38 PM EDT
Length of Visible Light 13h 00m
Length of Day
12h 13m
Tomorrow will be 1m 42s shorter.
Waning Crescent, 22% of the Moon is Illuminated
Today
Waning Crescent
Sep 24
New
Oct 1
First Quarter
Oct 8
Full
Oct 15
Last Quarter

Today's Extremes

State Highs State Lows

Community

WunderPhotos

Upload Photos

1,754,573 photos uploaded!

Nearby

Air Quality

  Air Quality AQ Index Pollutant
Yesterday Good
PM2.5
Yesterday Good
OZONE
Current Good
PM2.5
Current Good
OZONE
Thursday Good
PM2.5
Friday Good
OZONE

Snow Depth

Station Depth Elevation
No new snow has been reported.

Earthquake Activity

City Distance Mag. Time & Date
No recent earthquake activity has been reported nearby.
Minimum magnitude displayed is 2.5.

Coastal Water Temperatures

Place Temperature
No Stations Reporting

Nearby Weather Stations